sensor_id;sensor_type;location;lat;lon;timestamp;temperature;humidity
19646;DHT22;9971;52.446;13.452;2022-09-09T00:03:30;16.20;99.90
19646;DHT22;9971;52.446;13.452;2022-09-09T00:08:45;16.10;99.90
19646;DHT22;9971;52.446;13.452;2022-09-09T00:13:48;16.10;99.90
19646;DHT22;9971;52.446;13.452;2022-09-09T00:19:15;16.00;99.90
19646;DHT22;9971;52.446;13.452;2022-09-09T00:24:29;16.00;99.90
19646;DHT22;9971;52.446;13.452;2022-09-09T00:29:43;16.00;99.90
19646;DHT22;9971;52.446;13.452;2022-09-09T00:34:49;15.90;99.90
19646;DHT22;9971;52.446;13.452;2022-09-09T00:39:51;15.90;99.90
19646;DHT22;9971;52.446;13.452;2022-09-09T00:44:59;15.80;99.90
19646;DHT22;9971;52.446;13.452;2022-09-09T00:50:01;15.80;99.90
19646;DHT22;9971;52.446;13.452;2022-09-09T00:55:05;15.80;99.90
19646;DHT22;9971;52.446;13.452;2022-09-09T01:00:21;15.80;99.90
19646;DHT22;9971;52.446;13.452;2022-09-09T01:10:39;15.80;99.90
19646;DHT22;9971;52.446;13.452;2022-09-09T01:15:38;15.70;99.90
19646;DHT22;9971;52.446;13.452;2022-09-09T01:20:46;15.60;99.90
19646;DHT22;9971;52.446;13.452;2022-09-09T01:26:05;15.60;99.90
19646;DHT22;9971;52.446;13.452;2022-09-09T01:31:06;15.60;99.90
19646;DHT22;9971;52.446;13.452;2022-09-09T01:36:14;15.50;99.90
19646;DHT22;9971;52.446;13.452;2022-09-09T01:41:14;15.50;99.90
19646;DHT22;9971;52.446;13.452;2022-09-09T01:46:16;15.60;99.90
19646;DHT22;9971;52.446;13.452;2022-09-09T01:51:18;15.60;99.90
19646;DHT22;9971;52.446;13.452;2022-09-09T01:56:29;15.50;99.90
19646;DHT22;9971;52.446;13.452;2022-09-09T02:01:37;15.50;99.90
19646;DHT22;9971;52.446;13.452;2022-09-09T02:06:37;15.40;99.90
19646;DHT22;9971;52.446;13.452;2022-09-09T02:11:38;15.40;99.90
19646;DHT22;9971;52.446;13.452;2022-09-09T02:16:42;15.40;99.90
19646;DHT22;9971;52.446;13.452;2022-09-09T02:21:44;15.30;99.90
19646;DHT22;9971;52.446;13.452;2022-09-09T02:26:46;15.40;99.90
19646;DHT22;9971;52.446;13.452;2022-09-09T02:31:47;15.40;99.90
19646;DHT22;9971;52.446;13.452;2022-09-09T02:36:49;15.40;99.90
19646;DHT22;9971;52.446;13.452;2022-09-09T02:41:51;15.40;99.90
19646;DHT22;9971;52.446;13.452;2022-09-09T02:47:03;15.30;99.90
19646;DHT22;9971;52.446;13.452;2022-09-09T02:52:04;15.30;99.90
19646;DHT22;9971;52.446;13.452;2022-09-09T02:57:22;15.30;99.90
19646;DHT22;9971;52.446;13.452;2022-09-09T03:02:23;15.30;99.90
19646;DHT22;9971;52.446;13.452;2022-09-09T03:07:25;15.30;99.90
19646;DHT22;9971;52.446;13.452;2022-09-09T03:12:27;15.10;99.90
19646;DHT22;9971;52.446;13.452;2022-09-09T03:17:30;15.20;99.90
19646;DHT22;9971;52.446;13.452;2022-09-09T03:22:32;15.20;99.90
19646;DHT22;9971;52.446;13.452;2022-09-09T03:27:35;15.10;99.90
19646;DHT22;9971;52.446;13.452;2022-09-09T03:32:37;15.20;99.90
19646;DHT22;9971;52.446;13.452;2022-09-09T03:37:40;15.10;99.90
19646;DHT22;9971;52.446;13.452;2022-09-09T03:42:42;15.10;99.90
19646;DHT22;9971;52.446;13.452;2022-09-09T03:47:44;15.10;99.90
19646;DHT22;9971;52.446;13.452;2022-09-09T03:52:47;15.10;99.90
19646;DHT22;9971;52.446;13.452;2022-09-09T03:57:49;15.10;99.90
19646;DHT22;9971;52.446;13.452;2022-09-09T04:02:55;15.10;99.90
19646;DHT22;9971;52.446;13.452;2022-09-09T04:07:57;15.10;99.90
19646;DHT22;9971;52.446;13.452;2022-09-09T04:13:00;15.10;99.90
19646;DHT22;9971;52.446;13.452;2022-09-09T04:18:02;15.00;99.90
19646;DHT22;9971;52.446;13.452;2022-09-09T04:23:05;15.00;99.90
19646;DHT22;9971;52.446;13.452;2022-09-09T04:28:07;14.90;99.90
19646;DHT22;9971;52.446;13.452;2022-09-09T04:33:11;15.00;99.90
19646;DHT22;9971;52.446;13.452;2022-09-09T04:38:13;15.00;99.90
19646;DHT22;9971;52.446;13.452;2022-09-09T04:43:15;14.90;99.90
19646;DHT22;9971;52.446;13.452;2022-09-09T04:48:17;15.00;99.90
19646;DHT22;9971;52.446;13.452;2022-09-09T04:53:19;15.00;99.90
19646;DHT22;9971;52.446;13.452;2022-09-09T04:58:22;15.00;99.90
19646;DHT22;9971;52.446;13.452;2022-09-09T05:03:24;15.00;99.90
19646;DHT22;9971;52.446;13.452;2022-09-09T05:08:26;15.10;99.90
19646;DHT22;9971;52.446;13.452;2022-09-09T05:13:29;15.20;99.90
19646;DHT22;9971;52.446;13.452;2022-09-09T05:18:31;15.30;99.90
19646;DHT22;9971;52.446;13.452;2022-09-09T05:23:34;15.30;99.90
19646;DHT22;9971;52.446;13.452;2022-09-09T05:28:36;15.40;99.90
19646;DHT22;9971;52.446;13.452;2022-09-09T05:33:38;15.50;99.90
19646;DHT22;9971;52.446;13.452;2022-09-09T05:38:40;15.50;99.90
19646;DHT22;9971;52.446;13.452;2022-09-09T05:43:42;15.60;99.90
19646;DHT22;9971;52.446;13.452;2022-09-09T05:48:44;15.60;99.90
19646;DHT22;9971;52.446;13.452;2022-09-09T05:53:45;15.70;99.90
19646;DHT22;9971;52.446;13.452;2022-09-09T05:58:48;15.80;99.90
19646;DHT22;9971;52.446;13.452;2022-09-09T06:03:49;15.90;99.90
19646;DHT22;9971;52.446;13.452;2022-09-09T06:08:52;15.90;99.90
19646;DHT22;9971;52.446;13.452;2022-09-09T06:13:54;16.00;99.90
19646;DHT22;9971;52.446;13.452;2022-09-09T06:18:56;16.10;99.90
19646;DHT22;9971;52.446;13.452;2022-09-09T06:23:58;16.20;99.90
19646;DHT22;9971;52.446;13.452;2022-09-09T06:29:00;16.30;99.90
19646;DHT22;9971;52.446;13.452;2022-09-09T06:34:03;16.40;99.90
19646;DHT22;9971;52.446;13.452;2022-09-09T06:39:04;16.50;99.90
19646;DHT22;9971;52.446;13.452;2022-09-09T06:44:06;16.70;99.90
19646;DHT22;9971;52.446;13.452;2022-09-09T06:49:08;16.80;99.90
19646;DHT22;9971;52.446;13.452;2022-09-09T06:54:10;17.00;99.90
19646;DHT22;9971;52.446;13.452;2022-09-09T06:59:12;17.10;99.90
19646;DHT22;9971;52.446;13.452;2022-09-09T07:04:15;17.30;99.90
19646;DHT22;9971;52.446;13.452;2022-09-09T07:09:17;17.30;99.90
19646;DHT22;9971;52.446;13.452;2022-09-09T07:14:19;17.50;99.90
19646;DHT22;9971;52.446;13.452;2022-09-09T07:19:21;17.60;99.90
19646;DHT22;9971;52.446;13.452;2022-09-09T07:24:23;17.70;99.90
19646;DHT22;9971;52.446;13.452;2022-09-09T07:29:26;17.90;99.90
19646;DHT22;9971;52.446;13.452;2022-09-09T07:34:34;18.00;99.90
19646;DHT22;9971;52.446;13.452;2022-09-09T07:39:36;18.00;99.90
19646;DHT22;9971;52.446;13.452;2022-09-09T07:44:43;18.30;99.90
19646;DHT22;9971;52.446;13.452;2022-09-09T07:49:46;18.40;99.90
19646;DHT22;9971;52.446;13.452;2022-09-09T07:54:49;18.60;99.90
19646;DHT22;9971;52.446;13.452;2022-09-09T07:59:51;18.60;99.90
19646;DHT22;9971;52.446;13.452;2022-09-09T08:04:54;18.80;99.90
19646;DHT22;9971;52.446;13.452;2022-09-09T08:09:56;19.00;99.90
19646;DHT22;9971;52.446;13.452;2022-09-09T08:14:58;19.10;99.90
19646;DHT22;9971;52.446;13.452;2022-09-09T08:20:01;19.30;99.90
19646;DHT22;9971;52.446;13.452;2022-09-09T08:25:03;19.40;99.90
19646;DHT22;9971;52.446;13.452;2022-09-09T08:30:06;19.60;99.90
19646;DHT22;9971;52.446;13.452;2022-09-09T08:35:09;19.70;99.90
19646;DHT22;9971;52.446;13.452;2022-09-09T08:40:16;19.80;99.90
19646;DHT22;9971;52.446;13.452;2022-09-09T08:45:33;19.90;99.90
19646;DHT22;9971;52.446;13.452;2022-09-09T08:50:35;19.90;99.90
19646;DHT22;9971;52.446;13.452;2022-09-09T08:55:54;19.90;99.90
19646;DHT22;9971;52.446;13.452;2022-09-09T09:01:09;20.00;99.90
19646;DHT22;9971;52.446;13.452;2022-09-09T09:06:40;20.10;99.90
19646;DHT22;9971;52.446;13.452;2022-09-09T09:11:21;20.30;99.90
19646;DHT22;9971;52.446;13.452;2022-09-09T09:16:29;20.70;99.90
19646;DHT22;9971;52.446;13.452;2022-09-09T09:21:34;20.90;99.90
19646;DHT22;9971;52.446;13.452;2022-09-09T09:26:34;21.10;99.90
19646;DHT22;9971;52.446;13.452;2022-09-09T09:31:36;21.40;99.90
19646;DHT22;9971;52.446;13.452;2022-09-09T09:36:40;21.70;99.90
19646;DHT22;9971;52.446;13.452;2022-09-09T09:41:41;22.00;99.90
19646;DHT22;9971;52.446;13.452;2022-09-09T09:46:43;22.10;99.90
19646;DHT22;9971;52.446;13.452;2022-09-09T09:51:45;22.40;99.90
19646;DHT22;9971;52.446;13.452;2022-09-09T09:56:47;22.30;99.90
19646;DHT22;9971;52.446;13.452;2022-09-09T10:01:49;22.60;99.90
19646;DHT22;9971;52.446;13.452;2022-09-09T10:06:51;22.80;99.90
19646;DHT22;9971;52.446;13.452;2022-09-09T10:12:14;23.00;99.90
19646;DHT22;9971;52.446;13.452;2022-09-09T10:17:18;23.10;99.90
19646;DHT22;9971;52.446;13.452;2022-09-09T10:22:27;23.20;99.90
19646;DHT22;9971;52.446;13.452;2022-09-09T10:27:44;23.40;99.90
19646;DHT22;9971;52.446;13.452;2022-09-09T10:33:08;23.40;99.90
19646;DHT22;9971;52.446;13.452;2022-09-09T10:38:12;23.70;99.90
19646;DHT22;9971;52.446;13.452;2022-09-09T10:48:42;23.80;99.90
19646;DHT22;9971;52.446;13.452;2022-09-09T10:59:11;24.00;99.90
19646;DHT22;9971;52.446;13.452;2022-09-09T11:04:35;24.70;99.90
19646;DHT22;9971;52.446;13.452;2022-09-09T11:09:42;25.10;99.90
19646;DHT22;9971;52.446;13.452;2022-09-09T11:14:45;25.30;99.90
19646;DHT22;9971;52.446;13.452;2022-09-09T11:19:45;25.70;99.90
19646;DHT22;9971;52.446;13.452;2022-09-09T11:24:50;25.80;99.90
19646;DHT22;9971;52.446;13.452;2022-09-09T11:30:02;25.70;99.90
19646;DHT22;9971;52.446;13.452;2022-09-09T11:40:18;26.10;99.90
19646;DHT22;9971;52.446;13.452;2022-09-09T11:45:23;26.60;99.90
19646;DHT22;9971;52.446;13.452;2022-09-09T11:50:38;26.60;99.90
19646;DHT22;9971;52.446;13.452;2022-09-09T11:55:40;26.10;99.90
19646;DHT22;9971;52.446;13.452;2022-09-09T12:00:44;25.60;99.90
19646;DHT22;9971;52.446;13.452;2022-09-09T12:05:45;25.40;99.90
19646;DHT22;9971;52.446;13.452;2022-09-09T12:10:53;25.70;99.90
19646;DHT22;9971;52.446;13.452;2022-09-09T12:15:56;26.10;99.90
19646;DHT22;9971;52.446;13.452;2022-09-09T12:21:18;26.40;99.90
19646;DHT22;9971;52.446;13.452;2022-09-09T12:26:58;26.80;99.90
19646;DHT22;9971;52.446;13.452;2022-09-09T12:32:01;26.70;99.90
19646;DHT22;9971;52.446;13.452;2022-09-09T12:37:05;26.50;99.90
19646;DHT22;9971;52.446;13.452;2022-09-09T12:42:14;26.50;99.90
19646;DHT22;9971;52.446;13.452;2022-09-09T12:47:09;26.40;99.90
19646;DHT22;9971;52.446;13.452;2022-09-09T12:52:14;26.30;99.90
19646;DHT22;9971;52.446;13.452;2022-09-09T12:57:15;26.20;99.90
19646;DHT22;9971;52.446;13.452;2022-09-09T13:02:20;26.00;99.90
19646;DHT22;9971;52.446;13.452;2022-09-09T13:07:20;26.00;99.90
19646;DHT22;9971;52.446;13.452;2022-09-09T13:12:22;26.00;99.90
19646;DHT22;9971;52.446;13.452;2022-09-09T13:17:25;26.00;99.90
19646;DHT22;9971;52.446;13.452;2022-09-09T13:27:59;26.20;99.90
19646;DHT22;9971;52.446;13.452;2022-09-09T13:33:20;26.00;99.90
19646;DHT22;9971;52.446;13.452;2022-09-09T13:38:19;25.70;99.90
19646;DHT22;9971;52.446;13.452;2022-09-09T13:43:21;25.90;99.90
19646;DHT22;9971;52.446;13.452;2022-09-09T13:48:23;25.80;99.90
19646;DHT22;9971;52.446;13.452;2022-09-09T13:53:25;25.30;99.90
19646;DHT22;9971;52.446;13.452;2022-09-09T13:58:28;25.40;99.90
19646;DHT22;9971;52.446;13.452;2022-09-09T14:03:30;25.40;99.90
19646;DHT22;9971;52.446;13.452;2022-09-09T14:08:32;25.20;99.90
19646;DHT22;9971;52.446;13.452;2022-09-09T14:13:34;24.80;99.90
19646;DHT22;9971;52.446;13.452;2022-09-09T14:18:37;24.40;99.90
19646;DHT22;9971;52.446;13.452;2022-09-09T14:23:39;24.10;99.90
19646;DHT22;9971;52.446;13.452;2022-09-09T14:28:41;23.80;99.90
19646;DHT22;9971;52.446;13.452;2022-09-09T14:33:44;23.70;99.90
19646;DHT22;9971;52.446;13.452;2022-09-09T14:38:47;23.90;99.90
19646;DHT22;9971;52.446;13.452;2022-09-09T14:43:49;24.40;99.90
19646;DHT22;9971;52.446;13.452;2022-09-09T14:48:52;24.70;99.90
19646;DHT22;9971;52.446;13.452;2022-09-09T14:53:55;24.30;99.90
19646;DHT22;9971;52.446;13.452;2022-09-09T14:58:57;23.90;99.90
19646;DHT22;9971;52.446;13.452;2022-09-09T15:04:00;24.00;99.90
19646;DHT22;9971;52.446;13.452;2022-09-09T15:09:01;23.80;99.90
19646;DHT22;9971;52.446;13.452;2022-09-09T15:14:04;23.70;99.90
19646;DHT22;9971;52.446;13.452;2022-09-09T15:19:06;23.70;99.90
19646;DHT22;9971;52.446;13.452;2022-09-09T15:24:08;23.60;99.90
19646;DHT22;9971;52.446;13.452;2022-09-09T15:29:10;24.10;99.90
19646;DHT22;9971;52.446;13.452;2022-09-09T15:34:13;24.50;99.90
19646;DHT22;9971;52.446;13.452;2022-09-09T15:39:16;25.00;99.90
19646;DHT22;9971;52.446;13.452;2022-09-09T15:44:17;25.50;99.90
19646;DHT22;9971;52.446;13.452;2022-09-09T15:49:24;26.10;99.90
19646;DHT22;9971;52.446;13.452;2022-09-09T15:54:26;26.30;99.90
19646;DHT22;9971;52.446;13.452;2022-09-09T15:59:29;26.50;99.90
19646;DHT22;9971;52.446;13.452;2022-09-09T16:04:31;26.40;99.90
19646;DHT22;9971;52.446;13.452;2022-09-09T16:09:33;26.60;99.90
19646;DHT22;9971;52.446;13.452;2022-09-09T16:14:35;26.60;99.90
19646;DHT22;9971;52.446;13.452;2022-09-09T16:19:37;26.90;99.90
19646;DHT22;9971;52.446;13.452;2022-09-09T16:24:40;26.40;99.90
19646;DHT22;9971;52.446;13.452;2022-09-09T16:29:42;25.90;99.90
19646;DHT22;9971;52.446;13.452;2022-09-09T16:34:45;25.50;99.90
19646;DHT22;9971;52.446;13.452;2022-09-09T16:39:47;25.10;99.90
19646;DHT22;9971;52.446;13.452;2022-09-09T16:44:49;24.80;99.90
19646;DHT22;9971;52.446;13.452;2022-09-09T16:49:52;24.40;99.90
19646;DHT22;9971;52.446;13.452;2022-09-09T16:54:54;24.20;99.90
19646;DHT22;9971;52.446;13.452;2022-09-09T16:59:57;23.90;99.90
19646;DHT22;9971;52.446;13.452;2022-09-09T17:04:59;23.60;99.90
19646;DHT22;9971;52.446;13.452;2022-09-09T17:10:01;23.20;99.90
19646;DHT22;9971;52.446;13.452;2022-09-09T17:15:04;22.90;99.90
19646;DHT22;9971;52.446;13.452;2022-09-09T17:20:07;22.70;99.90
19646;DHT22;9971;52.446;13.452;2022-09-09T17:25:09;22.50;99.90
19646;DHT22;9971;52.446;13.452;2022-09-09T17:30:12;22.20;99.90
19646;DHT22;9971;52.446;13.452;2022-09-09T17:35:14;21.90;99.90
19646;DHT22;9971;52.446;13.452;2022-09-09T17:40:17;21.70;99.90
19646;DHT22;9971;52.446;13.452;2022-09-09T17:45:19;21.50;99.90
19646;DHT22;9971;52.446;13.452;2022-09-09T17:50:22;21.30;99.90
19646;DHT22;9971;52.446;13.452;2022-09-09T17:55:24;21.10;99.90
19646;DHT22;9971;52.446;13.452;2022-09-09T18:00:27;21.00;99.90
19646;DHT22;9971;52.446;13.452;2022-09-09T18:05:29;20.80;99.90
19646;DHT22;9971;52.446;13.452;2022-09-09T18:10:31;20.60;99.90
19646;DHT22;9971;52.446;13.452;2022-09-09T18:15:36;20.40;99.90
19646;DHT22;9971;52.446;13.452;2022-09-09T18:20:37;20.30;99.90
19646;DHT22;9971;52.446;13.452;2022-09-09T18:25:40;20.10;99.90
19646;DHT22;9971;52.446;13.452;2022-09-09T18:30:42;20.00;99.90
19646;DHT22;9971;52.446;13.452;2022-09-09T18:35:44;19.80;99.90
19646;DHT22;9971;52.446;13.452;2022-09-09T18:40:47;19.70;99.90
19646;DHT22;9971;52.446;13.452;2022-09-09T18:45:49;19.60;99.90
19646;DHT22;9971;52.446;13.452;2022-09-09T18:50:51;19.50;99.90
19646;DHT22;9971;52.446;13.452;2022-09-09T18:55:57;19.30;99.90
19646;DHT22;9971;52.446;13.452;2022-09-09T19:00:58;19.20;99.90
19646;DHT22;9971;52.446;13.452;2022-09-09T19:06:04;19.10;99.90
19646;DHT22;9971;52.446;13.452;2022-09-09T19:11:07;19.00;99.90
19646;DHT22;9971;52.446;13.452;2022-09-09T19:16:09;19.00;99.90
19646;DHT22;9971;52.446;13.452;2022-09-09T19:21:15;18.90;99.90
19646;DHT22;9971;52.446;13.452;2022-09-09T19:26:16;18.80;99.90
19646;DHT22;9971;52.446;13.452;2022-09-09T19:31:18;18.70;99.90
19646;DHT22;9971;52.446;13.452;2022-09-09T19:36:20;18.70;99.90
19646;DHT22;9971;52.446;13.452;2022-09-09T19:41:23;18.50;99.90
19646;DHT22;9971;52.446;13.452;2022-09-09T19:46:24;18.40;99.90
19646;DHT22;9971;52.446;13.452;2022-09-09T19:51:27;18.40;99.90
19646;DHT22;9971;52.446;13.452;2022-09-09T19:56:29;18.30;99.90
19646;DHT22;9971;52.446;13.452;2022-09-09T20:01:32;18.20;99.90
19646;DHT22;9971;52.446;13.452;2022-09-09T20:06:35;18.20;99.90
19646;DHT22;9971;52.446;13.452;2022-09-09T20:11:35;18.10;99.90
19646;DHT22;9971;52.446;13.452;2022-09-09T20:16:37;18.10;99.90
19646;DHT22;9971;52.446;13.452;2022-09-09T20:21:40;18.00;99.90
19646;DHT22;9971;52.446;13.452;2022-09-09T20:26:41;17.90;99.90
19646;DHT22;9971;52.446;13.452;2022-09-09T20:31:43;17.80;99.90
19646;DHT22;9971;52.446;13.452;2022-09-09T20:36:45;17.70;99.90
19646;DHT22;9971;52.446;13.452;2022-09-09T20:41:47;17.60;99.90
19646;DHT22;9971;52.446;13.452;2022-09-09T20:46:50;17.60;99.90
19646;DHT22;9971;52.446;13.452;2022-09-09T20:51:52;17.40;99.90
19646;DHT22;9971;52.446;13.452;2022-09-09T20:56:53;17.40;99.90
19646;DHT22;9971;52.446;13.452;2022-09-09T21:01:55;17.30;99.90
19646;DHT22;9971;52.446;13.452;2022-09-09T21:06:58;17.30;99.90
19646;DHT22;9971;52.446;13.452;2022-09-09T21:12:00;17.30;99.90
19646;DHT22;9971;52.446;13.452;2022-09-09T21:17:02;17.20;99.90
19646;DHT22;9971;52.446;13.452;2022-09-09T21:22:04;17.20;99.90
19646;DHT22;9971;52.446;13.452;2022-09-09T21:27:07;17.10;99.90
19646;DHT22;9971;52.446;13.452;2022-09-09T21:32:09;17.10;99.90
19646;DHT22;9971;52.446;13.452;2022-09-09T21:37:12;17.10;99.90
19646;DHT22;9971;52.446;13.452;2022-09-09T21:42:14;17.10;99.90
19646;DHT22;9971;52.446;13.452;2022-09-09T21:47:17;17.10;99.90
19646;DHT22;9971;52.446;13.452;2022-09-09T21:52:19;17.10;99.90
19646;DHT22;9971;52.446;13.452;2022-09-09T21:57:22;17.10;99.90
19646;DHT22;9971;52.446;13.452;2022-09-09T22:02:24;17.10;99.90
19646;DHT22;9971;52.446;13.452;2022-09-09T22:07:27;17.10;99.90
19646;DHT22;9971;52.446;13.452;2022-09-09T22:12:29;17.10;99.90
19646;DHT22;9971;52.446;13.452;2022-09-09T22:17:32;17.10;99.90
19646;DHT22;9971;52.446;13.452;2022-09-09T22:22:33;17.00;99.90
19646;DHT22;9971;52.446;13.452;2022-09-09T22:27:36;17.00;99.90
19646;DHT22;9971;52.446;13.452;2022-09-09T22:32:38;16.90;99.90
19646;DHT22;9971;52.446;13.452;2022-09-09T22:37:41;16.90;99.90
19646;DHT22;9971;52.446;13.452;2022-09-09T22:42:43;16.90;99.90
19646;DHT22;9971;52.446;13.452;2022-09-09T22:47:46;16.80;99.90
19646;DHT22;9971;52.446;13.452;2022-09-09T22:52:48;16.80;99.90
19646;DHT22;9971;52.446;13.452;2022-09-09T22:57:50;16.70;99.90
19646;DHT22;9971;52.446;13.452;2022-09-09T23:02:52;16.70;99.90
19646;DHT22;9971;52.446;13.452;2022-09-09T23:07:55;16.70;99.90
19646;DHT22;9971;52.446;13.452;2022-09-09T23:12:57;16.70;99.90
19646;DHT22;9971;52.446;13.452;2022-09-09T23:18:00;16.60;99.90
19646;DHT22;9971;52.446;13.452;2022-09-09T23:23:02;16.60;99.90
19646;DHT22;9971;52.446;13.452;2022-09-09T23:28:05;16.50;99.90
19646;DHT22;9971;52.446;13.452;2022-09-09T23:33:07;16.40;99.90
19646;DHT22;9971;52.446;13.452;2022-09-09T23:38:09;16.30;99.90
19646;DHT22;9971;52.446;13.452;2022-09-09T23:43:12;16.30;99.90
19646;DHT22;9971;52.446;13.452;2022-09-09T23:48:15;16.30;99.90
19646;DHT22;9971;52.446;13.452;2022-09-09T23:53:17;16.20;99.90
19646;DHT22;9971;52.446;13.452;2022-09-09T23:58:19;16.10;99.90
